Montrose Regional Airport
KMTJ : now visible

Airfield :











YOU CAN JOIN US ON...

 
LOGIN :

Register | Disclaimer

   EN    FR    IT 

 









Legend :    VFR   Marginal VFR   IFR   Intensive IFR   Very Intensive IFR
Visi :
Ceiling :
>= 8 km
>= 3000ft
5 to 8 km
1000 to 3000 ft
1500m to 5 km
500 to 1000 ft
800 to 1500m
200 to 500 ft
< 800m
< 200 ft
Symbols :   Thunderstorms  Fog  Heavy snow  Heavy precipitations  Wind > 20 kt






- Airport Elevation : 5759 ft


KMTJ - Montrose Regional

CURRENT METAR :
  • 172053Z AUTO 28011KT 10SM FEW012 02/M04 A2998 RMK AO2 PK WND 27035/2022 WSHFT 2016 SNB24E39 SLP143 P0000 60005 T00221039 53005

EXPIRED METARs :
  • 172036Z AUTO 29015G23KT 5SM -SN FEW012 FEW026 BKN045 02/M03 A2997 RMK AO2 PK WND 27035/2022 WSHFT 2016 SNB24 P0000 T00171033
  • 171953Z AUTO 05007KT 10SM OVC047 01/M02 A2996 RMK AO2 SNE03 SLP142 P0000 T00061022
  • 171909Z AUTO 31007KT 10SM SCT026 SCT055 BKN110 02/M03 A2995 RMK AO2 LTG DSNT SW SNE03 P0000 T00221028
  • 171853Z AUTO 23014G25KT 5SM -SN BKN026 BKN034 OVC043 02/M03 A2994 RMK AO2 PK WND 28040/1756 SLP123 P0005 T00171028
  • 171837Z AUTO 24013G26KT 220V300 4SM -SN BKN015 OVC043 01/M02 A2995 RMK AO2 PK WND 28040/1756 P0005 T00061022

TAF KMTJ
Valid from the 17 at 18:00 until the 18 at 18:00 UTC


171806Z 1718/1818 24015KT P6SM VCSH BKN035 OVC045
TEMPO 1718/1720 24020G35KT 1/4SM +SHSN FG BKN005 OVC040
FM172000 27020G31KT P6SM VCSH SCT045 BKN080
FM172300 30015G25KT P6SM VCSH FEW050 SCT100
FM180200 23007KT P6SM FEW050 FEW200
FM180600 13005KT P6SM SCT180 BKN250



MET'MAP, your aeronautical weather chart ! - Copyright ORBIFLY December 2007 - Disclaimer

ORBIFLY MET'MAP TEAM :

Programming & Development : Alexandra Zaïnal
Concept & original design : Baudouin d'Aumeries
Assistance for programming : Marc-Olivier Méhu
Technical & hardware support : Manuel Goepfert

Contact : metmap@orbifly.com




SOURCES & CREDITS :

   NOAA       Earth
Advisory